sensor_id;sensor_type;location;lat;lon;timestamp;P1;durP1;ratioP1;P2;durP2;ratioP2
7199;SDS011;3641;49.082;8.200;2023-07-13T00:01:25;3.20;;;1.30;;
7199;SDS011;3641;49.082;8.200;2023-07-13T00:03:53;3.10;;;1.25;;
7199;SDS011;3641;49.082;8.200;2023-07-13T00:06:19;3.42;;;1.40;;
7199;SDS011;3641;49.082;8.200;2023-07-13T00:08:46;4.85;;;1.13;;
7199;SDS011;3641;49.082;8.200;2023-07-13T00:11:14;3.58;;;1.27;;
7199;SDS011;3641;49.082;8.200;2023-07-13T00:13:41;5.15;;;1.55;;
7199;SDS011;3641;49.082;8.200;2023-07-13T00:16:09;4.10;;;1.45;;
7199;SDS011;3641;49.082;8.200;2023-07-13T00:18:38;5.18;;;1.35;;
7199;SDS011;3641;49.082;8.200;2023-07-13T00:21:06;3.55;;;1.35;;
7199;SDS011;3641;49.082;8.200;2023-07-13T00:23:35;3.35;;;1.30;;
7199;SDS011;3641;49.082;8.200;2023-07-13T00:26:03;4.00;;;1.60;;
7199;SDS011;3641;49.082;8.200;2023-07-13T00:28:30;6.90;;;1.30;;
7199;SDS011;3641;49.082;8.200;2023-07-13T00:30:56;3.70;;;1.27;;
7199;SDS011;3641;49.082;8.200;2023-07-13T00:33:23;3.72;;;1.50;;
7199;SDS011;3641;49.082;8.200;2023-07-13T00:35:49;5.40;;;1.58;;
7199;SDS011;3641;49.082;8.200;2023-07-13T00:38:17;5.22;;;1.50;;
7199;SDS011;3641;49.082;8.200;2023-07-13T00:40:44;5.68;;;1.50;;
7199;SDS011;3641;49.082;8.200;2023-07-13T00:43:11;2.97;;;1.42;;
7199;SDS011;3641;49.082;8.200;2023-07-13T00:48:39;4.25;;;1.65;;
7199;SDS011;3641;49.082;8.200;2023-07-13T00:51:09;2.50;;;1.40;;
7199;SDS011;3641;49.082;8.200;2023-07-13T00:53:39;4.95;;;1.50;;
7199;SDS011;3641;49.082;8.200;2023-07-13T00:56:06;6.90;;;2.03;;
7199;SDS011;3641;49.082;8.200;2023-07-13T00:58:33;7.63;;;1.60;;
7199;SDS011;3641;49.082;8.200;2023-07-13T01:01:00;3.55;;;1.40;;
7199;SDS011;3641;49.082;8.200;2023-07-13T01:03:27;4.22;;;1.50;;
7199;SDS011;3641;49.082;8.200;2023-07-13T01:05:54;4.47;;;1.67;;
7199;SDS011;3641;49.082;8.200;2023-07-13T01:08:21;3.15;;;1.50;;
7199;SDS011;3641;49.082;8.200;2023-07-13T01:10:52;4.10;;;1.77;;
7199;SDS011;3641;49.082;8.200;2023-07-13T01:13:20;5.43;;;1.85;;
7199;SDS011;3641;49.082;8.200;2023-07-13T01:15:48;8.23;;;1.40;;
7199;SDS011;3641;49.082;8.200;2023-07-13T01:18:17;3.50;;;1.33;;
7199;SDS011;3641;49.082;8.200;2023-07-13T01:20:50;3.70;;;1.52;;
7199;SDS011;3641;49.082;8.200;2023-07-13T01:23:18;6.13;;;1.33;;
7199;SDS011;3641;49.082;8.200;2023-07-13T01:25:45;6.38;;;1.60;;
7199;SDS011;3641;49.082;8.200;2023-07-13T01:28:12;3.40;;;1.45;;
7199;SDS011;3641;49.082;8.200;2023-07-13T01:30:39;3.88;;;1.60;;
7199;SDS011;3641;49.082;8.200;2023-07-13T01:33:06;4.10;;;1.38;;
7199;SDS011;3641;49.082;8.200;2023-07-13T01:35:32;3.10;;;1.40;;
7199;SDS011;3641;49.082;8.200;2023-07-13T01:38:00;7.25;;;1.60;;
7199;SDS011;3641;49.082;8.200;2023-07-13T01:40:28;4.90;;;1.50;;
7199;SDS011;3641;49.082;8.200;2023-07-13T01:42:54;5.13;;;1.45;;
7199;SDS011;3641;49.082;8.200;2023-07-13T01:45:21;3.85;;;1.70;;
7199;SDS011;3641;49.082;8.200;2023-07-13T01:47:48;5.28;;;1.70;;
7199;SDS011;3641;49.082;8.200;2023-07-13T01:50:14;3.60;;;1.55;;
7199;SDS011;3641;49.082;8.200;2023-07-13T01:52:41;4.07;;;1.55;;
7199;SDS011;3641;49.082;8.200;2023-07-13T01:55:09;5.53;;;1.60;;
7199;SDS011;3641;49.082;8.200;2023-07-13T01:57:35;4.07;;;1.65;;
7199;SDS011;3641;49.082;8.200;2023-07-13T02:00:03;6.82;;;1.70;;
7199;SDS011;3641;49.082;8.200;2023-07-13T02:02:30;4.40;;;1.20;;
7199;SDS011;3641;49.082;8.200;2023-07-13T02:04:57;5.75;;;1.40;;
7199;SDS011;3641;49.082;8.200;2023-07-13T02:07:23;6.95;;;1.73;;
7199;SDS011;3641;49.082;8.200;2023-07-13T02:09:50;4.80;;;1.33;;
7199;SDS011;3641;49.082;8.200;2023-07-13T02:12:17;4.60;;;1.55;;
7199;SDS011;3641;49.082;8.200;2023-07-13T02:14:44;3.58;;;1.48;;
7199;SDS011;3641;49.082;8.200;2023-07-13T02:17:10;5.75;;;1.55;;
7199;SDS011;3641;49.082;8.200;2023-07-13T02:19:38;4.70;;;1.60;;
7199;SDS011;3641;49.082;8.200;2023-07-13T02:22:05;5.57;;;1.85;;
7199;SDS011;3641;49.082;8.200;2023-07-13T02:24:31;4.43;;;1.50;;
7199;SDS011;3641;49.082;8.200;2023-07-13T02:26:58;6.95;;;2.00;;
7199;SDS011;3641;49.082;8.200;2023-07-13T02:29:26;6.93;;;1.52;;
7199;SDS011;3641;49.082;8.200;2023-07-13T02:31:52;4.72;;;1.42;;
7199;SDS011;3641;49.082;8.200;2023-07-13T02:34:19;5.88;;;2.05;;
7199;SDS011;3641;49.082;8.200;2023-07-13T02:36:45;4.03;;;1.90;;
7199;SDS011;3641;49.082;8.200;2023-07-13T02:39:12;4.03;;;1.67;;
7199;SDS011;3641;49.082;8.200;2023-07-13T02:41:39;4.93;;;1.52;;
7199;SDS011;3641;49.082;8.200;2023-07-13T02:44:06;4.88;;;1.70;;
7199;SDS011;3641;49.082;8.200;2023-07-13T02:46:35;7.10;;;1.70;;
7199;SDS011;3641;49.082;8.200;2023-07-13T02:49:03;7.40;;;1.63;;
7199;SDS011;3641;49.082;8.200;2023-07-13T02:51:30;5.65;;;1.73;;
7199;SDS011;3641;49.082;8.200;2023-07-13T02:53:58;4.80;;;1.83;;
7199;SDS011;3641;49.082;8.200;2023-07-13T02:56:25;4.45;;;1.60;;
7199;SDS011;3641;49.082;8.200;2023-07-13T02:58:53;4.93;;;1.83;;
7199;SDS011;3641;49.082;8.200;2023-07-13T03:01:20;3.10;;;1.70;;
7199;SDS011;3641;49.082;8.200;2023-07-13T03:03:49;5.05;;;1.48;;
7199;SDS011;3641;49.082;8.200;2023-07-13T03:06:16;4.13;;;1.70;;
7199;SDS011;3641;49.082;8.200;2023-07-13T03:08:43;3.28;;;1.65;;
7199;SDS011;3641;49.082;8.200;2023-07-13T03:11:11;3.13;;;2.00;;
7199;SDS011;3641;49.082;8.200;2023-07-13T03:13:39;7.85;;;2.30;;
7199;SDS011;3641;49.082;8.200;2023-07-13T03:16:06;7.80;;;2.30;;
7199;SDS011;3641;49.082;8.200;2023-07-13T03:18:33;4.45;;;2.20;;
7199;SDS011;3641;49.082;8.200;2023-07-13T03:21:03;5.25;;;2.00;;
7199;SDS011;3641;49.082;8.200;2023-07-13T03:23:30;5.68;;;1.90;;
7199;SDS011;3641;49.082;8.200;2023-07-13T03:26:04;6.30;;;2.67;;
7199;SDS011;3641;49.082;8.200;2023-07-13T03:28:32;6.40;;;2.28;;
7199;SDS011;3641;49.082;8.200;2023-07-13T03:30:59;4.45;;;1.85;;
7199;SDS011;3641;49.082;8.200;2023-07-13T03:33:27;3.97;;;1.88;;
7199;SDS011;3641;49.082;8.200;2023-07-13T03:35:53;3.20;;;1.85;;
7199;SDS011;3641;49.082;8.200;2023-07-13T03:38:21;4.15;;;2.00;;
7199;SDS011;3641;49.082;8.200;2023-07-13T03:40:47;8.23;;;2.10;;
7199;SDS011;3641;49.082;8.200;2023-07-13T03:43:14;4.50;;;2.10;;
7199;SDS011;3641;49.082;8.200;2023-07-13T03:45:41;3.65;;;1.83;;
7199;SDS011;3641;49.082;8.200;2023-07-13T03:48:08;4.63;;;2.05;;
7199;SDS011;3641;49.082;8.200;2023-07-13T03:50:34;3.63;;;2.08;;
7199;SDS011;3641;49.082;8.200;2023-07-13T03:53:01;3.28;;;2.20;;
7199;SDS011;3641;49.082;8.200;2023-07-13T03:55:28;5.75;;;2.00;;
7199;SDS011;3641;49.082;8.200;2023-07-13T03:57:57;6.00;;;1.83;;
7199;SDS011;3641;49.082;8.200;2023-07-13T04:00:25;4.15;;;1.90;;
7199;SDS011;3641;49.082;8.200;2023-07-13T04:02:52;6.75;;;2.10;;
7199;SDS011;3641;49.082;8.200;2023-07-13T04:05:18;5.00;;;2.25;;
7199;SDS011;3641;49.082;8.200;2023-07-13T04:07:45;4.28;;;2.03;;
7199;SDS011;3641;49.082;8.200;2023-07-13T04:10:11;4.35;;;1.73;;
7199;SDS011;3641;49.082;8.200;2023-07-13T04:12:39;3.88;;;1.70;;
7199;SDS011;3641;49.082;8.200;2023-07-13T04:15:06;3.88;;;1.70;;
7199;SDS011;3641;49.082;8.200;2023-07-13T04:17:33;4.95;;;1.85;;
7199;SDS011;3641;49.082;8.200;2023-07-13T04:20:00;6.03;;;1.90;;
7199;SDS011;3641;49.082;8.200;2023-07-13T04:22:26;3.97;;;2.05;;
7199;SDS011;3641;49.082;8.200;2023-07-13T04:24:53;4.30;;;1.98;;
7199;SDS011;3641;49.082;8.200;2023-07-13T04:27:19;7.43;;;2.25;;
7199;SDS011;3641;49.082;8.200;2023-07-13T04:29:47;5.13;;;1.73;;
7199;SDS011;3641;49.082;8.200;2023-07-13T04:32:13;4.32;;;1.73;;
7199;SDS011;3641;49.082;8.200;2023-07-13T04:34:40;5.65;;;2.30;;
7199;SDS011;3641;49.082;8.200;2023-07-13T04:37:06;5.22;;;2.00;;
7199;SDS011;3641;49.082;8.200;2023-07-13T04:39:33;8.30;;;2.38;;
7199;SDS011;3641;49.082;8.200;2023-07-13T04:41:59;8.68;;;2.00;;
7199;SDS011;3641;49.082;8.200;2023-07-13T04:44:25;5.03;;;1.90;;
7199;SDS011;3641;49.082;8.200;2023-07-13T04:46:53;5.63;;;2.38;;
7199;SDS011;3641;49.082;8.200;2023-07-13T04:49:20;4.38;;;1.83;;
7199;SDS011;3641;49.082;8.200;2023-07-13T04:51:46;4.50;;;2.05;;
7199;SDS011;3641;49.082;8.200;2023-07-13T04:54:13;4.20;;;2.00;;
7199;SDS011;3641;49.082;8.200;2023-07-13T04:56:39;4.10;;;1.67;;
7199;SDS011;3641;49.082;8.200;2023-07-13T04:59:05;6.07;;;1.90;;
7199;SDS011;3641;49.082;8.200;2023-07-13T05:01:32;7.38;;;2.15;;
7199;SDS011;3641;49.082;8.200;2023-07-13T05:04:00;4.80;;;2.00;;
7199;SDS011;3641;49.082;8.200;2023-07-13T05:06:26;4.45;;;2.08;;
7199;SDS011;3641;49.082;8.200;2023-07-13T05:08:53;5.30;;;2.20;;
7199;SDS011;3641;49.082;8.200;2023-07-13T05:11:20;6.65;;;2.30;;
7199;SDS011;3641;49.082;8.200;2023-07-13T05:13:46;5.15;;;2.22;;
7199;SDS011;3641;49.082;8.200;2023-07-13T05:16:13;5.45;;;1.92;;
7199;SDS011;3641;49.082;8.200;2023-07-13T05:18:39;5.80;;;2.35;;
7199;SDS011;3641;49.082;8.200;2023-07-13T05:21:08;4.15;;;1.80;;
7199;SDS011;3641;49.082;8.200;2023-07-13T05:23:36;6.95;;;2.40;;
7199;SDS011;3641;49.082;8.200;2023-07-13T05:26:04;5.75;;;2.47;;
7199;SDS011;3641;49.082;8.200;2023-07-13T05:28:31;5.43;;;2.20;;
7199;SDS011;3641;49.082;8.200;2023-07-13T05:30:58;4.30;;;2.15;;
7199;SDS011;3641;49.082;8.200;2023-07-13T05:33:24;6.75;;;2.40;;
7199;SDS011;3641;49.082;8.200;2023-07-13T05:35:51;9.18;;;2.42;;
7199;SDS011;3641;49.082;8.200;2023-07-13T05:38:19;5.82;;;2.63;;
7199;SDS011;3641;49.082;8.200;2023-07-13T05:40:45;8.48;;;2.22;;
7199;SDS011;3641;49.082;8.200;2023-07-13T05:43:12;4.55;;;2.15;;
7199;SDS011;3641;49.082;8.200;2023-07-13T05:45:39;4.82;;;2.00;;
7199;SDS011;3641;49.082;8.200;2023-07-13T05:48:06;4.35;;;2.10;;
7199;SDS011;3641;49.082;8.200;2023-07-13T05:50:33;5.50;;;2.00;;
7199;SDS011;3641;49.082;8.200;2023-07-13T05:52:59;3.05;;;1.73;;
7199;SDS011;3641;49.082;8.200;2023-07-13T05:55:27;8.85;;;2.40;;
7199;SDS011;3641;49.082;8.200;2023-07-13T05:57:53;6.88;;;2.20;;
7199;SDS011;3641;49.082;8.200;2023-07-13T06:00:20;5.78;;;1.73;;
7199;SDS011;3641;49.082;8.200;2023-07-13T06:02:46;6.78;;;2.65;;
7199;SDS011;3641;49.082;8.200;2023-07-13T06:05:13;10.15;;;2.22;;
7199;SDS011;3641;49.082;8.200;2023-07-13T06:07:39;3.80;;;1.90;;
7199;SDS011;3641;49.082;8.200;2023-07-13T06:10:07;6.10;;;2.03;;
7199;SDS011;3641;49.082;8.200;2023-07-13T06:12:35;6.40;;;1.83;;
7199;SDS011;3641;49.082;8.200;2023-07-13T06:15:01;7.85;;;1.70;;
7199;SDS011;3641;49.082;8.200;2023-07-13T06:17:28;8.57;;;2.13;;
7199;SDS011;3641;49.082;8.200;2023-07-13T06:19:55;6.45;;;1.52;;
7199;SDS011;3641;49.082;8.200;2023-07-13T06:22:21;3.92;;;1.75;;
7199;SDS011;3641;49.082;8.200;2023-07-13T06:24:48;5.55;;;2.00;;
7199;SDS011;3641;49.082;8.200;2023-07-13T06:27:14;3.47;;;1.50;;
7199;SDS011;3641;49.082;8.200;2023-07-13T06:29:42;4.20;;;1.60;;
7199;SDS011;3641;49.082;8.200;2023-07-13T06:32:10;8.20;;;1.70;;
7199;SDS011;3641;49.082;8.200;2023-07-13T06:34:36;4.30;;;1.50;;
7199;SDS011;3641;49.082;8.200;2023-07-13T06:37:03;4.97;;;1.85;;
7199;SDS011;3641;49.082;8.200;2023-07-13T06:39:29;2.90;;;1.40;;
7199;SDS011;3641;49.082;8.200;2023-07-13T06:41:56;4.45;;;1.73;;
7199;SDS011;3641;49.082;8.200;2023-07-13T06:44:22;3.80;;;1.48;;
7199;SDS011;3641;49.082;8.200;2023-07-13T06:46:50;4.97;;;1.60;;
7199;SDS011;3641;49.082;8.200;2023-07-13T06:49:16;5.97;;;1.63;;
7199;SDS011;3641;49.082;8.200;2023-07-13T06:51:43;4.88;;;1.80;;
7199;SDS011;3641;49.082;8.200;2023-07-13T06:54:09;7.70;;;1.85;;
7199;SDS011;3641;49.082;8.200;2023-07-13T06:56:36;4.57;;;1.50;;
7199;SDS011;3641;49.082;8.200;2023-07-13T06:59:02;8.13;;;1.85;;
7199;SDS011;3641;49.082;8.200;2023-07-13T07:01:28;5.63;;;2.03;;
7199;SDS011;3641;49.082;8.200;2023-07-13T07:03:56;6.30;;;2.38;;
7199;SDS011;3641;49.082;8.200;2023-07-13T07:06:23;7.57;;;2.15;;
7199;SDS011;3641;49.082;8.200;2023-07-13T07:08:49;4.47;;;1.55;;
7199;SDS011;3641;49.082;8.200;2023-07-13T07:11:17;4.30;;;1.65;;
7199;SDS011;3641;49.082;8.200;2023-07-13T07:13:47;2.88;;;1.40;;
7199;SDS011;3641;49.082;8.200;2023-07-13T07:16:14;5.53;;;1.42;;
7199;SDS011;3641;49.082;8.200;2023-07-13T07:18:40;4.38;;;1.50;;
7199;SDS011;3641;49.082;8.200;2023-07-13T07:21:08;5.05;;;1.45;;
7199;SDS011;3641;49.082;8.200;2023-07-13T07:23:34;5.72;;;1.50;;
7199;SDS011;3641;49.082;8.200;2023-07-13T07:26:01;4.13;;;1.58;;
7199;SDS011;3641;49.082;8.200;2023-07-13T07:28:27;6.47;;;1.80;;
7199;SDS011;3641;49.082;8.200;2023-07-13T07:30:55;5.57;;;1.70;;
7199;SDS011;3641;49.082;8.200;2023-07-13T07:33:22;3.30;;;1.25;;
7199;SDS011;3641;49.082;8.200;2023-07-13T07:35:49;6.43;;;1.40;;
7199;SDS011;3641;49.082;8.200;2023-07-13T07:38:17;4.20;;;1.42;;
7199;SDS011;3641;49.082;8.200;2023-07-13T07:40:43;3.40;;;1.30;;
7199;SDS011;3641;49.082;8.200;2023-07-13T07:43:11;4.68;;;1.50;;
7199;SDS011;3641;49.082;8.200;2023-07-13T07:45:38;4.68;;;1.70;;
7199;SDS011;3641;49.082;8.200;2023-07-13T07:48:05;5.82;;;1.30;;
7199;SDS011;3641;49.082;8.200;2023-07-13T07:50:32;4.82;;;1.35;;
7199;SDS011;3641;49.082;8.200;2023-07-13T07:52:59;3.05;;;1.20;;
7199;SDS011;3641;49.082;8.200;2023-07-13T07:55:28;4.55;;;1.27;;
7199;SDS011;3641;49.082;8.200;2023-07-13T07:57:55;3.75;;;1.15;;
7199;SDS011;3641;49.082;8.200;2023-07-13T08:00:22;5.65;;;1.45;;
7199;SDS011;3641;49.082;8.200;2023-07-13T08:02:49;4.22;;;1.30;;
7199;SDS011;3641;49.082;8.200;2023-07-13T08:05:16;3.55;;;1.20;;
7199;SDS011;3641;49.082;8.200;2023-07-13T08:07:43;3.90;;;1.25;;
7199;SDS011;3641;49.082;8.200;2023-07-13T08:10:09;4.00;;;1.50;;
7199;SDS011;3641;49.082;8.200;2023-07-13T08:12:37;5.13;;;1.52;;
7199;SDS011;3641;49.082;8.200;2023-07-13T08:15:05;6.97;;;1.50;;
7199;SDS011;3641;49.082;8.200;2023-07-13T08:17:35;6.20;;;1.45;;
7199;SDS011;3641;49.082;8.200;2023-07-13T08:20:01;3.78;;;1.45;;
7199;SDS011;3641;49.082;8.200;2023-07-13T08:22:29;3.13;;;1.17;;
7199;SDS011;3641;49.082;8.200;2023-07-13T08:24:56;3.70;;;1.20;;
7199;SDS011;3641;49.082;8.200;2023-07-13T08:27:22;6.03;;;1.30;;
7199;SDS011;3641;49.082;8.200;2023-07-13T08:29:52;3.92;;;1.40;;
7199;SDS011;3641;49.082;8.200;2023-07-13T08:32:19;5.43;;;1.38;;
7199;SDS011;3641;49.082;8.200;2023-07-13T08:34:47;4.85;;;1.27;;
7199;SDS011;3641;49.082;8.200;2023-07-13T08:37:14;3.50;;;1.20;;
7199;SDS011;3641;49.082;8.200;2023-07-13T08:39:41;5.25;;;1.45;;
7199;SDS011;3641;49.082;8.200;2023-07-13T08:42:11;2.03;;;1.20;;
7199;SDS011;3641;49.082;8.200;2023-07-13T08:44:47;5.78;;;1.23;;
7199;SDS011;3641;49.082;8.200;2023-07-13T08:47:21;5.10;;;1.20;;
7199;SDS011;3641;49.082;8.200;2023-07-13T08:49:49;6.07;;;1.63;;
7199;SDS011;3641;49.082;8.200;2023-07-13T08:52:21;2.83;;;1.20;;
7199;SDS011;3641;49.082;8.200;2023-07-13T08:54:55;6.18;;;1.70;;
7199;SDS011;3641;49.082;8.200;2023-07-13T08:57:30;3.95;;;1.20;;
7199;SDS011;3641;49.082;8.200;2023-07-13T08:59:59;6.00;;;1.52;;
7199;SDS011;3641;49.082;8.200;2023-07-13T09:02:27;5.30;;;1.50;;
7199;SDS011;3641;49.082;8.200;2023-07-13T09:05:03;3.63;;;1.25;;
7199;SDS011;3641;49.082;8.200;2023-07-13T09:07:39;3.72;;;1.25;;
7199;SDS011;3641;49.082;8.200;2023-07-13T09:10:15;3.47;;;1.30;;
7199;SDS011;3641;49.082;8.200;2023-07-13T09:12:48;3.35;;;1.38;;
7199;SDS011;3641;49.082;8.200;2023-07-13T09:15:24;5.80;;;1.55;;
7199;SDS011;3641;49.082;8.200;2023-07-13T09:17:58;7.47;;;1.70;;
7199;SDS011;3641;49.082;8.200;2023-07-13T09:20:30;4.90;;;1.40;;
7199;SDS011;3641;49.082;8.200;2023-07-13T09:23:00;4.70;;;1.50;;
7199;SDS011;3641;49.082;8.200;2023-07-13T09:25:32;2.95;;;1.10;;
7199;SDS011;3641;49.082;8.200;2023-07-13T09:28:01;6.40;;;1.50;;
7199;SDS011;3641;49.082;8.200;2023-07-13T09:30:37;4.93;;;1.65;;
7199;SDS011;3641;49.082;8.200;2023-07-13T09:33:10;5.50;;;1.52;;
7199;SDS011;3641;49.082;8.200;2023-07-13T09:35:37;4.38;;;1.48;;
7199;SDS011;3641;49.082;8.200;2023-07-13T09:38:10;2.90;;;1.27;;
7199;SDS011;3641;49.082;8.200;2023-07-13T09:40:40;3.42;;;1.35;;
7199;SDS011;3641;49.082;8.200;2023-07-13T09:43:14;6.97;;;1.63;;
7199;SDS011;3641;49.082;8.200;2023-07-13T09:45:44;5.85;;;1.20;;
7199;SDS011;3641;49.082;8.200;2023-07-13T09:48:13;5.65;;;1.35;;
7199;SDS011;3641;49.082;8.200;2023-07-13T09:50:41;9.02;;;1.60;;
7199;SDS011;3641;49.082;8.200;2023-07-13T09:53:13;6.50;;;1.20;;
7199;SDS011;3641;49.082;8.200;2023-07-13T09:55:42;2.97;;;1.23;;
7199;SDS011;3641;49.082;8.200;2023-07-13T09:58:10;4.93;;;1.23;;
7199;SDS011;3641;49.082;8.200;2023-07-13T10:00:39;4.57;;;1.20;;
7199;SDS011;3641;49.082;8.200;2023-07-13T10:03:16;4.25;;;1.40;;
7199;SDS011;3641;49.082;8.200;2023-07-13T10:05:46;4.22;;;1.20;;
7199;SDS011;3641;49.082;8.200;2023-07-13T10:08:17;5.03;;;1.52;;
7199;SDS011;3641;49.082;8.200;2023-07-13T10:10:46;5.00;;;1.45;;
7199;SDS011;3641;49.082;8.200;2023-07-13T10:13:28;3.33;;;1.27;;
7199;SDS011;3641;49.082;8.200;2023-07-13T10:15:59;4.22;;;1.50;;
7199;SDS011;3641;49.082;8.200;2023-07-13T10:18:27;6.80;;;1.50;;
7199;SDS011;3641;49.082;8.200;2023-07-13T10:20:59;3.08;;;1.55;;
7199;SDS011;3641;49.082;8.200;2023-07-13T10:23:36;4.20;;;1.30;;
7199;SDS011;3641;49.082;8.200;2023-07-13T10:26:03;4.82;;;1.38;;
7199;SDS011;3641;49.082;8.200;2023-07-13T10:28:38;4.35;;;1.27;;
7199;SDS011;3641;49.082;8.200;2023-07-13T10:31:10;6.20;;;1.48;;
7199;SDS011;3641;49.082;8.200;2023-07-13T10:33:40;4.47;;;1.40;;
7199;SDS011;3641;49.082;8.200;2023-07-13T10:36:12;5.43;;;1.85;;
7199;SDS011;3641;49.082;8.200;2023-07-13T10:38:42;7.35;;;1.88;;
7199;SDS011;3641;49.082;8.200;2023-07-13T10:41:10;6.85;;;1.58;;
7199;SDS011;3641;49.082;8.200;2023-07-13T10:43:42;4.65;;;1.52;;
7199;SDS011;3641;49.082;8.200;2023-07-13T10:46:11;12.55;;;1.70;;
7199;SDS011;3641;49.082;8.200;2023-07-13T10:48:40;8.93;;;1.77;;
7199;SDS011;3641;49.082;8.200;2023-07-13T10:51:10;6.93;;;1.83;;
7199;SDS011;3641;49.082;8.200;2023-07-13T10:53:40;5.65;;;1.52;;
7199;SDS011;3641;49.082;8.200;2023-07-13T10:56:16;7.93;;;1.50;;
7199;SDS011;3641;49.082;8.200;2023-07-13T10:58:48;4.00;;;1.50;;
7199;SDS011;3641;49.082;8.200;2023-07-13T11:01:39;7.18;;;1.85;;
7199;SDS011;3641;49.082;8.200;2023-07-13T11:04:10;6.20;;;1.40;;
7199;SDS011;3641;49.082;8.200;2023-07-13T11:06:40;4.72;;;1.38;;
7199;SDS011;3641;49.082;8.200;2023-07-13T11:09:30;7.13;;;1.52;;
7199;SDS011;3641;49.082;8.200;2023-07-13T11:12:03;5.25;;;1.65;;
7199;SDS011;3641;49.082;8.200;2023-07-13T11:14:34;5.90;;;1.60;;
7199;SDS011;3641;49.082;8.200;2023-07-13T11:20:19;4.90;;;1.70;;
7199;SDS011;3641;49.082;8.200;2023-07-13T11:22:49;3.97;;;1.75;;
7199;SDS011;3641;49.082;8.200;2023-07-13T11:25:21;3.58;;;1.48;;
7199;SDS011;3641;49.082;8.200;2023-07-13T11:28:02;4.70;;;1.50;;
7199;SDS011;3641;49.082;8.200;2023-07-13T11:30:34;6.47;;;1.20;;
7199;SDS011;3641;49.082;8.200;2023-07-13T11:33:10;8.05;;;1.33;;
7199;SDS011;3641;49.082;8.200;2023-07-13T11:35:53;4.22;;;1.10;;
7199;SDS011;3641;49.082;8.200;2023-07-13T11:38:28;4.05;;;1.48;;
7199;SDS011;3641;49.082;8.200;2023-07-13T11:40:58;6.22;;;1.20;;
7199;SDS011;3641;49.082;8.200;2023-07-13T11:43:29;5.05;;;1.48;;
7199;SDS011;3641;49.082;8.200;2023-07-13T11:45:58;3.17;;;1.13;;
7199;SDS011;3641;49.082;8.200;2023-07-13T11:48:26;2.00;;;1.10;;
7199;SDS011;3641;49.082;8.200;2023-07-13T11:50:57;3.97;;;1.25;;
7199;SDS011;3641;49.082;8.200;2023-07-13T11:53:28;3.15;;;1.30;;
7199;SDS011;3641;49.082;8.200;2023-07-13T11:55:57;8.15;;;1.30;;
7199;SDS011;3641;49.082;8.200;2023-07-13T11:58:24;3.28;;;1.17;;
7199;SDS011;3641;49.082;8.200;2023-07-13T12:00:53;4.13;;;1.17;;
7199;SDS011;3641;49.082;8.200;2023-07-13T12:03:22;3.88;;;1.10;;
7199;SDS011;3641;49.082;8.200;2023-07-13T12:06:01;4.10;;;1.20;;
7199;SDS011;3641;49.082;8.200;2023-07-13T12:08:30;4.88;;;1.20;;
7199;SDS011;3641;49.082;8.200;2023-07-13T12:11:04;7.60;;;2.22;;
7199;SDS011;3641;49.082;8.200;2023-07-13T12:13:35;4.53;;;1.70;;
7199;SDS011;3641;49.082;8.200;2023-07-13T12:16:10;3.50;;;1.08;;
7199;SDS011;3641;49.082;8.200;2023-07-13T12:18:40;4.70;;;1.15;;
7199;SDS011;3641;49.082;8.200;2023-07-13T12:21:12;4.18;;;1.10;;
7199;SDS011;3641;49.082;8.200;2023-07-13T12:23:43;3.10;;;1.15;;
7199;SDS011;3641;49.082;8.200;2023-07-13T12:26:10;5.03;;;1.00;;
7199;SDS011;3641;49.082;8.200;2023-07-13T12:28:38;4.93;;;1.15;;
7199;SDS011;3641;49.082;8.200;2023-07-13T12:31:19;5.50;;;1.30;;
7199;SDS011;3641;49.082;8.200;2023-07-13T12:33:55;2.60;;;1.17;;
7199;SDS011;3641;49.082;8.200;2023-07-13T12:36:24;4.88;;;1.10;;
7199;SDS011;3641;49.082;8.200;2023-07-13T12:38:52;4.25;;;0.82;;
7199;SDS011;3641;49.082;8.200;2023-07-13T12:41:18;3.90;;;1.15;;
7199;SDS011;3641;49.082;8.200;2023-07-13T12:43:45;7.18;;;1.27;;
7199;SDS011;3641;49.082;8.200;2023-07-13T12:46:17;3.30;;;1.10;;
7199;SDS011;3641;49.082;8.200;2023-07-13T12:48:48;3.53;;;1.20;;
7199;SDS011;3641;49.082;8.200;2023-07-13T12:51:16;2.85;;;1.10;;
7199;SDS011;3641;49.082;8.200;2023-07-13T12:53:47;4.53;;;1.27;;
7199;SDS011;3641;49.082;8.200;2023-07-13T12:56:17;3.05;;;1.27;;
7199;SDS011;3641;49.082;8.200;2023-07-13T12:58:48;5.68;;;1.40;;
7199;SDS011;3641;49.082;8.200;2023-07-13T13:01:19;2.65;;;0.80;;
7199;SDS011;3641;49.082;8.200;2023-07-13T13:03:48;5.95;;;2.22;;
7199;SDS011;3641;49.082;8.200;2023-07-13T13:06:20;5.55;;;1.23;;
7199;SDS011;3641;49.082;8.200;2023-07-13T13:08:50;5.00;;;1.20;;
7199;SDS011;3641;49.082;8.200;2023-07-13T13:11:18;3.42;;;1.30;;
7199;SDS011;3641;49.082;8.200;2023-07-13T13:13:46;4.47;;;1.17;;
7199;SDS011;3641;49.082;8.200;2023-07-13T13:16:14;5.60;;;0.98;;
7199;SDS011;3641;49.082;8.200;2023-07-13T13:18:45;4.07;;;1.00;;
7199;SDS011;3641;49.082;8.200;2023-07-13T13:21:12;2.38;;;0.90;;
7199;SDS011;3641;49.082;8.200;2023-07-13T13:23:38;6.43;;;1.73;;
7199;SDS011;3641;49.082;8.200;2023-07-13T13:26:08;2.80;;;1.15;;
7199;SDS011;3641;49.082;8.200;2023-07-13T13:28:36;3.92;;;1.33;;
7199;SDS011;3641;49.082;8.200;2023-07-13T13:31:02;3.38;;;1.10;;
7199;SDS011;3641;49.082;8.200;2023-07-13T13:33:29;4.28;;;1.23;;
7199;SDS011;3641;49.082;8.200;2023-07-13T13:35:56;3.05;;;1.42;;
7199;SDS011;3641;49.082;8.200;2023-07-13T13:38:24;5.40;;;1.20;;
7199;SDS011;3641;49.082;8.200;2023-07-13T13:40:52;17.38;;;1.63;;
7199;SDS011;3641;49.082;8.200;2023-07-13T13:43:21;4.40;;;1.30;;
7199;SDS011;3641;49.082;8.200;2023-07-13T13:45:51;7.35;;;1.23;;
7199;SDS011;3641;49.082;8.200;2023-07-13T13:48:19;4.30;;;2.17;;
7199;SDS011;3641;49.082;8.200;2023-07-13T13:50:55;3.33;;;1.10;;
7199;SDS011;3641;49.082;8.200;2023-07-13T13:53:22;4.07;;;1.73;;
7199;SDS011;3641;49.082;8.200;2023-07-13T13:55:49;5.60;;;2.15;;
7199;SDS011;3641;49.082;8.200;2023-07-13T13:58:17;3.90;;;1.40;;
7199;SDS011;3641;49.082;8.200;2023-07-13T14:00:45;5.53;;;1.52;;
7199;SDS011;3641;49.082;8.200;2023-07-13T14:03:14;5.47;;;1.05;;
7199;SDS011;3641;49.082;8.200;2023-07-13T14:05:43;4.70;;;1.17;;
7199;SDS011;3641;49.082;8.200;2023-07-13T14:08:12;6.35;;;1.20;;
7199;SDS011;3641;49.082;8.200;2023-07-13T14:10:40;3.85;;;1.00;;
7199;SDS011;3641;49.082;8.200;2023-07-13T14:13:09;2.95;;;1.17;;
7199;SDS011;3641;49.082;8.200;2023-07-13T14:15:43;6.13;;;1.17;;
7199;SDS011;3641;49.082;8.200;2023-07-13T14:18:11;5.22;;;1.30;;
7199;SDS011;3641;49.082;8.200;2023-07-13T14:20:42;4.15;;;1.20;;
7199;SDS011;3641;49.082;8.200;2023-07-13T14:23:09;4.47;;;1.40;;
7199;SDS011;3641;49.082;8.200;2023-07-13T14:25:35;7.18;;;1.58;;
7199;SDS011;3641;49.082;8.200;2023-07-13T14:28:04;3.88;;;1.42;;
7199;SDS011;3641;49.082;8.200;2023-07-13T14:30:44;11.15;;;1.33;;
7199;SDS011;3641;49.082;8.200;2023-07-13T14:33:13;7.05;;;1.42;;
7199;SDS011;3641;49.082;8.200;2023-07-13T14:35:40;7.22;;;1.50;;
7199;SDS011;3641;49.082;8.200;2023-07-13T14:38:08;4.50;;;1.23;;
7199;SDS011;3641;49.082;8.200;2023-07-13T14:40:37;3.35;;;1.20;;
7199;SDS011;3641;49.082;8.200;2023-07-13T14:43:02;6.13;;;1.50;;
7199;SDS011;3641;49.082;8.200;2023-07-13T14:45:29;3.50;;;1.40;;
7199;SDS011;3641;49.082;8.200;2023-07-13T14:47:57;2.13;;;1.00;;
7199;SDS011;3641;49.082;8.200;2023-07-13T14:50:27;3.75;;;1.30;;
7199;SDS011;3641;49.082;8.200;2023-07-13T14:52:57;3.20;;;1.20;;
7199;SDS011;3641;49.082;8.200;2023-07-13T14:55:23;3.05;;;1.00;;
7199;SDS011;3641;49.082;8.200;2023-07-13T14:57:51;3.63;;;1.08;;
7199;SDS011;3641;49.082;8.200;2023-07-13T15:00:19;7.05;;;1.30;;
7199;SDS011;3641;49.082;8.200;2023-07-13T15:02:47;2.55;;;0.90;;
7199;SDS011;3641;49.082;8.200;2023-07-13T15:05:17;4.55;;;1.10;;
7199;SDS011;3641;49.082;8.200;2023-07-13T15:07:46;4.82;;;1.00;;
7199;SDS011;3641;49.082;8.200;2023-07-13T15:10:14;4.82;;;1.33;;
7199;SDS011;3641;49.082;8.200;2023-07-13T15:12:41;6.30;;;1.40;;
7199;SDS011;3641;49.082;8.200;2023-07-13T15:15:07;3.28;;;1.17;;
7199;SDS011;3641;49.082;8.200;2023-07-13T15:17:35;2.65;;;1.00;;
7199;SDS011;3641;49.082;8.200;2023-07-13T15:20:05;3.92;;;1.27;;
7199;SDS011;3641;49.082;8.200;2023-07-13T15:22:41;7.80;;;1.40;;
7199;SDS011;3641;49.082;8.200;2023-07-13T15:25:11;4.90;;;1.20;;
7199;SDS011;3641;49.082;8.200;2023-07-13T15:27:41;3.17;;;1.30;;
7199;SDS011;3641;49.082;8.200;2023-07-13T15:30:08;3.45;;;1.25;;